sensor_id;sensor_type;location;lat;lon;timestamp;pressure;altitude;pressure_sealevel;temperature;humidity
58223;BME280;44020;50.890;15.796;2023-12-20T00:02:08;97033.09;;;6.23;94.19
58223;BME280;44020;50.890;15.796;2023-12-20T00:04:46;97028.24;;;6.22;93.96
58223;BME280;44020;50.890;15.796;2023-12-20T00:07:17;97033.77;;;6.21;93.60
58223;BME280;44020;50.890;15.796;2023-12-20T00:09:47;97029.21;;;6.21;93.81
58223;BME280;44020;50.890;15.796;2023-12-20T00:12:16;97024.87;;;6.20;93.98
58223;BME280;44020;50.890;15.796;2023-12-20T00:14:44;97026.55;;;6.18;94.03
58223;BME280;44020;50.890;15.796;2023-12-20T00:17:12;97024.65;;;6.18;93.90
58223;BME280;44020;50.890;15.796;2023-12-20T00:19:40;97024.66;;;6.15;93.52
58223;BME280;44020;50.890;15.796;2023-12-20T00:22:08;97023.92;;;6.13;93.85
58223;BME280;44020;50.890;15.796;2023-12-20T00:24:36;97019.17;;;6.12;93.98
58223;BME280;44020;50.890;15.796;2023-12-20T00:27:04;97012.96;;;6.10;93.83
58223;BME280;44020;50.890;15.796;2023-12-20T00:29:32;97014.31;;;6.09;93.57
58223;BME280;44020;50.890;15.796;2023-12-20T00:32:00;97012.59;;;6.08;93.64
58223;BME280;44020;50.890;15.796;2023-12-20T00:34:48;97009.96;;;6.08;93.78
58223;BME280;44020;50.890;15.796;2023-12-20T00:37:25;97006.89;;;6.06;93.44
58223;BME280;44020;50.890;15.796;2023-12-20T00:40:12;97002.95;;;6.04;93.39
58223;BME280;44020;50.890;15.796;2023-12-20T00:42:48;97006.36;;;6.03;93.38
58223;BME280;44020;50.890;15.796;2023-12-20T00:46:07;97015.26;;;6.01;93.13
58223;BME280;44020;50.890;15.796;2023-12-20T00:48:45;97019.59;;;6.00;93.23
58223;BME280;44020;50.890;15.796;2023-12-20T00:51:16;97025.94;;;6.00;93.10
58223;BME280;44020;50.890;15.796;2023-12-20T00:53:44;97020.23;;;5.98;93.12
58223;BME280;44020;50.890;15.796;2023-12-20T00:56:13;97020.48;;;5.97;93.17
58223;BME280;44020;50.890;15.796;2023-12-20T00:58:50;97015.63;;;5.96;93.50
58223;BME280;44020;50.890;15.796;2023-12-20T01:01:38;97017.46;;;5.95;93.34
58223;BME280;44020;50.890;15.796;2023-12-20T01:04:12;97016.58;;;5.91;93.11
58223;BME280;44020;50.890;15.796;2023-12-20T01:06:41;97018.49;;;5.89;93.29
58223;BME280;44020;50.890;15.796;2023-12-20T01:09:12;97021.23;;;5.87;93.43
58223;BME280;44020;50.890;15.796;2023-12-20T01:11:43;97024.67;;;5.86;93.72
58223;BME280;44020;50.890;15.796;2023-12-20T01:14:11;97024.26;;;5.84;93.25
58223;BME280;44020;50.890;15.796;2023-12-20T01:16:43;97014.61;;;5.80;93.49
58223;BME280;44020;50.890;15.796;2023-12-20T01:19:14;97007.17;;;5.78;93.59
58223;BME280;44020;50.890;15.796;2023-12-20T01:22:02;96994.02;;;5.77;93.69
58223;BME280;44020;50.890;15.796;2023-12-20T01:24:34;96982.48;;;5.75;93.68
58223;BME280;44020;50.890;15.796;2023-12-20T01:27:05;96987.64;;;5.75;93.40
58223;BME280;44020;50.890;15.796;2023-12-20T01:29:33;96981.94;;;5.76;93.82
58223;BME280;44020;50.890;15.796;2023-12-20T01:32:01;96978.73;;;5.76;93.66
58223;BME280;44020;50.890;15.796;2023-12-20T01:34:38;96974.33;;;5.76;94.25
58223;BME280;44020;50.890;15.796;2023-12-20T01:37:06;96978.14;;;5.77;93.96
58223;BME280;44020;50.890;15.796;2023-12-20T01:39:42;96981.11;;;5.78;94.28
58223;BME280;44020;50.890;15.796;2023-12-20T01:42:10;96975.03;;;5.76;94.11
58223;BME280;44020;50.890;15.796;2023-12-20T01:44:38;96967.73;;;5.75;94.08
58223;BME280;44020;50.890;15.796;2023-12-20T01:47:19;96969.16;;;5.72;94.52
58223;BME280;44020;50.890;15.796;2023-12-20T01:49:53;96973.15;;;5.70;94.52
58223;BME280;44020;50.890;15.796;2023-12-20T01:52:24;96968.54;;;5.68;94.55
58223;BME280;44020;50.890;15.796;2023-12-20T01:54:53;96963.58;;;5.65;94.57
58223;BME280;44020;50.890;15.796;2023-12-20T01:57:40;96964.05;;;5.63;94.73
58223;BME280;44020;50.890;15.796;2023-12-20T02:00:10;96962.34;;;5.62;94.53
58223;BME280;44020;50.890;15.796;2023-12-20T02:03:03;96956.39;;;5.62;95.07
58223;BME280;44020;50.890;15.796;2023-12-20T02:05:53;96952.38;;;5.64;94.89
58223;BME280;44020;50.890;15.796;2023-12-20T02:08:33;96952.52;;;5.64;94.94
58223;BME280;44020;50.890;15.796;2023-12-20T02:13:53;96944.27;;;5.63;94.80
58223;BME280;44020;50.890;15.796;2023-12-20T02:16:22;96948.60;;;5.59;94.87
58223;BME280;44020;50.890;15.796;2023-12-20T02:18:53;96945.33;;;5.58;95.28
58223;BME280;44020;50.890;15.796;2023-12-20T02:21:47;96939.48;;;5.56;95.10
58223;BME280;44020;50.890;15.796;2023-12-20T02:24:18;96933.98;;;5.57;95.54
58223;BME280;44020;50.890;15.796;2023-12-20T02:26:46;96931.58;;;5.58;95.59
58223;BME280;44020;50.890;15.796;2023-12-20T02:29:14;96926.95;;;5.59;95.41
58223;BME280;44020;50.890;15.796;2023-12-20T02:31:42;96928.13;;;5.60;95.72
58223;BME280;44020;50.890;15.796;2023-12-20T02:34:10;96927.45;;;5.59;95.58
58223;BME280;44020;50.890;15.796;2023-12-20T02:39:36;96924.94;;;5.57;95.69
58223;BME280;44020;50.890;15.796;2023-12-20T02:42:17;96922.01;;;5.56;95.76
58223;BME280;44020;50.890;15.796;2023-12-20T02:44:45;96922.75;;;5.56;95.74
58223;BME280;44020;50.890;15.796;2023-12-20T02:47:25;96928.55;;;5.56;96.07
58223;BME280;44020;50.890;15.796;2023-12-20T02:50:20;96930.52;;;5.55;96.16
58223;BME280;44020;50.890;15.796;2023-12-20T02:52:58;96939.27;;;5.54;96.19
58223;BME280;44020;50.890;15.796;2023-12-20T02:55:54;96936.94;;;5.51;96.33
58223;BME280;44020;50.890;15.796;2023-12-20T02:58:42;96924.27;;;5.51;96.28
58223;BME280;44020;50.890;15.796;2023-12-20T03:01:20;96928.14;;;5.51;96.33
58223;BME280;44020;50.890;15.796;2023-12-20T03:04:02;96924.08;;;5.52;96.60
58223;BME280;44020;50.890;15.796;2023-12-20T03:09:21;96925.77;;;5.49;96.56
58223;BME280;44020;50.890;15.796;2023-12-20T03:12:09;96922.62;;;5.50;96.65
58223;BME280;44020;50.890;15.796;2023-12-20T03:14:47;96919.23;;;5.47;96.44
58223;BME280;44020;50.890;15.796;2023-12-20T03:23:10;96917.23;;;5.34;96.48
58223;BME280;44020;50.890;15.796;2023-12-20T03:25:43;96913.34;;;5.32;96.66
58223;BME280;44020;50.890;15.796;2023-12-20T03:28:34;96910.23;;;5.31;96.60
58223;BME280;44020;50.890;15.796;2023-12-20T03:31:02;96911.55;;;5.29;96.78
58223;BME280;44020;50.890;15.796;2023-12-20T03:34:31;96916.23;;;5.27;96.56
58223;BME280;44020;50.890;15.796;2023-12-20T03:36:44;96915.34;;;5.28;96.55
58223;BME280;44020;50.890;15.796;2023-12-20T03:39:27;96916.78;;;5.25;96.43
58223;BME280;44020;50.890;15.796;2023-12-20T03:42:05;96914.19;;;5.20;96.46
58223;BME280;44020;50.890;15.796;2023-12-20T03:44:33;96918.79;;;5.20;96.57
58223;BME280;44020;50.890;15.796;2023-12-20T03:47:11;96914.69;;;5.18;96.73
58223;BME280;44020;50.890;15.796;2023-12-20T03:58:47;96914.09;;;5.13;96.67
58223;BME280;44020;50.890;15.796;2023-12-20T04:04:30;96912.88;;;5.13;96.72
58223;BME280;44020;50.890;15.796;2023-12-20T04:09:41;96914.52;;;5.12;96.59
58223;BME280;44020;50.890;15.796;2023-12-20T04:12:10;96912.76;;;5.10;96.19
58223;BME280;44020;50.890;15.796;2023-12-20T04:14:47;96922.01;;;5.05;96.09
58223;BME280;44020;50.890;15.796;2023-12-20T04:17:21;96917.27;;;4.99;96.41
58223;BME280;44020;50.890;15.796;2023-12-20T04:20:20;96917.08;;;4.99;96.51
58223;BME280;44020;50.890;15.796;2023-12-20T04:22:47;96921.91;;;4.98;96.12
58223;BME280;44020;50.890;15.796;2023-12-20T04:25:25;96919.48;;;4.94;96.30
58223;BME280;44020;50.890;15.796;2023-12-20T04:27:53;96918.24;;;4.91;96.32
58223;BME280;44020;50.890;15.796;2023-12-20T04:30:33;96922.44;;;4.89;96.27
58223;BME280;44020;50.890;15.796;2023-12-20T04:33:04;96923.86;;;4.86;96.30
58223;BME280;44020;50.890;15.796;2023-12-20T04:35:32;96925.29;;;4.83;96.28
58223;BME280;44020;50.890;15.796;2023-12-20T04:38:00;96920.83;;;4.80;96.35
58223;BME280;44020;50.890;15.796;2023-12-20T04:40:41;96921.76;;;4.79;96.20
58223;BME280;44020;50.890;15.796;2023-12-20T04:43:35;96926.65;;;4.77;96.16
58223;BME280;44020;50.890;15.796;2023-12-20T04:46:03;96922.02;;;4.76;96.18
58223;BME280;44020;50.890;15.796;2023-12-20T04:48:35;96925.77;;;4.71;96.36
58223;BME280;44020;50.890;15.796;2023-12-20T04:51:03;96928.88;;;4.70;96.24
58223;BME280;44020;50.890;15.796;2023-12-20T04:53:31;96933.33;;;4.69;96.13
58223;BME280;44020;50.890;15.796;2023-12-20T04:56:22;96928.89;;;4.67;96.25
58223;BME280;44020;50.890;15.796;2023-12-20T04:59:01;96927.48;;;4.64;96.27
58223;BME280;44020;50.890;15.796;2023-12-20T05:01:40;96926.51;;;4.62;96.35
58223;BME280;44020;50.890;15.796;2023-12-20T05:04:08;96924.54;;;4.60;96.33
58223;BME280;44020;50.890;15.796;2023-12-20T05:06:56;96922.35;;;4.58;96.30
58223;BME280;44020;50.890;15.796;2023-12-20T05:09:28;96926.24;;;4.57;96.37
58223;BME280;44020;50.890;15.796;2023-12-20T05:12:17;96926.31;;;4.56;96.55
58223;BME280;44020;50.890;15.796;2023-12-20T05:14:55;96927.70;;;4.56;96.43
58223;BME280;44020;50.890;15.796;2023-12-20T05:17:32;96930.78;;;4.55;96.52
58223;BME280;44020;50.890;15.796;2023-12-20T05:20:08;96929.85;;;4.53;96.71
58223;BME280;44020;50.890;15.796;2023-12-20T05:22:36;96927.69;;;4.54;96.61
58223;BME280;44020;50.890;15.796;2023-12-20T05:25:04;96928.32;;;4.55;96.56
58223;BME280;44020;50.890;15.796;2023-12-20T05:27:47;96936.87;;;4.56;96.78
58223;BME280;44020;50.890;15.796;2023-12-20T05:30:17;96934.33;;;4.57;96.77
58223;BME280;44020;50.890;15.796;2023-12-20T05:32:48;96935.29;;;4.59;96.70
58223;BME280;44020;50.890;15.796;2023-12-20T05:35:19;96932.31;;;4.59;96.70
58223;BME280;44020;50.890;15.796;2023-12-20T05:37:47;96935.02;;;4.58;96.70
58223;BME280;44020;50.890;15.796;2023-12-20T05:40:15;96938.42;;;4.56;96.97
58223;BME280;44020;50.890;15.796;2023-12-20T05:42:53;96938.39;;;4.57;96.99
58223;BME280;44020;50.890;15.796;2023-12-20T05:45:21;96939.34;;;4.56;96.99
58223;BME280;44020;50.890;15.796;2023-12-20T05:47:51;96944.16;;;4.58;97.21
58223;BME280;44020;50.890;15.796;2023-12-20T05:50:19;96938.83;;;4.59;97.13
58223;BME280;44020;50.890;15.796;2023-12-20T05:53:03;96938.65;;;4.59;97.24
58223;BME280;44020;50.890;15.796;2023-12-20T05:55:35;96941.49;;;4.58;97.37
58223;BME280;44020;50.890;15.796;2023-12-20T05:58:03;96944.39;;;4.60;97.44
58223;BME280;44020;50.890;15.796;2023-12-20T06:03:16;96936.14;;;4.60;97.32
58223;BME280;44020;50.890;15.796;2023-12-20T06:09:06;96930.02;;;4.59;97.65
58223;BME280;44020;50.890;15.796;2023-12-20T06:11:47;96928.95;;;4.59;97.91
58223;BME280;44020;50.890;15.796;2023-12-20T06:14:18;96925.92;;;4.60;97.86
58223;BME280;44020;50.890;15.796;2023-12-20T06:16:49;96926.55;;;4.62;97.88
58223;BME280;44020;50.890;15.796;2023-12-20T06:19:26;96934.33;;;4.61;97.64
58223;BME280;44020;50.890;15.796;2023-12-20T06:21:56;96940.60;;;4.59;97.90
58223;BME280;44020;50.890;15.796;2023-12-20T06:24:44;96939.79;;;4.57;97.80
58223;BME280;44020;50.890;15.796;2023-12-20T06:27:18;96946.73;;;4.53;97.92
58223;BME280;44020;50.890;15.796;2023-12-20T06:29:49;96943.92;;;4.53;98.15
58223;BME280;44020;50.890;15.796;2023-12-20T06:32:20;96943.25;;;4.56;97.96
58223;BME280;44020;50.890;15.796;2023-12-20T06:38:00;96951.02;;;4.55;98.00
58223;BME280;44020;50.890;15.796;2023-12-20T06:40:53;96949.89;;;4.53;98.06
58223;BME280;44020;50.890;15.796;2023-12-20T06:43:46;96949.91;;;4.53;98.44
58223;BME280;44020;50.890;15.796;2023-12-20T06:46:23;96947.62;;;4.53;98.28
58223;BME280;44020;50.890;15.796;2023-12-20T06:48:53;96948.89;;;4.56;98.47
58223;BME280;44020;50.890;15.796;2023-12-20T06:51:24;96950.70;;;4.58;98.52
58223;BME280;44020;50.890;15.796;2023-12-20T06:53:58;96953.23;;;4.59;98.48
58223;BME280;44020;50.890;15.796;2023-12-20T06:56:39;96962.90;;;4.59;98.42
58223;BME280;44020;50.890;15.796;2023-12-20T06:59:11;96965.19;;;4.59;98.60
58223;BME280;44020;50.890;15.796;2023-12-20T07:01:42;96969.91;;;4.60;98.68
58223;BME280;44020;50.890;15.796;2023-12-20T07:07:08;96969.41;;;4.59;98.65
58223;BME280;44020;50.890;15.796;2023-12-20T07:09:35;96971.17;;;4.59;98.74
58223;BME280;44020;50.890;15.796;2023-12-20T07:12:15;96973.10;;;4.59;98.66
58223;BME280;44020;50.890;15.796;2023-12-20T07:20:49;96985.55;;;4.57;98.68
58223;BME280;44020;50.890;15.796;2023-12-20T07:23:20;96985.34;;;4.58;98.92
58223;BME280;44020;50.890;15.796;2023-12-20T07:25:50;96989.89;;;4.58;98.77
58223;BME280;44020;50.890;15.796;2023-12-20T07:28:39;96996.57;;;4.58;98.76
58223;BME280;44020;50.890;15.796;2023-12-20T07:31:08;96998.20;;;4.57;98.64
58223;BME280;44020;50.890;15.796;2023-12-20T07:33:57;96997.63;;;4.58;98.61
58223;BME280;44020;50.890;15.796;2023-12-20T07:36:26;96994.94;;;4.59;98.52
58223;BME280;44020;50.890;15.796;2023-12-20T07:39:06;96994.78;;;4.58;98.59
58223;BME280;44020;50.890;15.796;2023-12-20T07:41:37;96993.19;;;4.59;98.50
58223;BME280;44020;50.890;15.796;2023-12-20T07:47:07;96988.79;;;4.53;98.33
58223;BME280;44020;50.890;15.796;2023-12-20T07:49:45;96993.35;;;4.50;98.50
58223;BME280;44020;50.890;15.796;2023-12-20T07:52:16;96991.15;;;4.48;98.50
58223;BME280;44020;50.890;15.796;2023-12-20T07:54:44;96995.07;;;4.48;98.56
58223;BME280;44020;50.890;15.796;2023-12-20T07:57:15;97001.85;;;4.46;98.38
58223;BME280;44020;50.890;15.796;2023-12-20T07:59:43;97005.42;;;4.45;98.53
58223;BME280;44020;50.890;15.796;2023-12-20T08:02:14;97006.02;;;4.47;98.58
58223;BME280;44020;50.890;15.796;2023-12-20T08:04:42;97010.77;;;4.47;98.50
58223;BME280;44020;50.890;15.796;2023-12-20T08:07:13;97015.85;;;4.47;98.43
58223;BME280;44020;50.890;15.796;2023-12-20T08:09:42;97019.13;;;4.45;98.41
58223;BME280;44020;50.890;15.796;2023-12-20T08:14:58;97026.56;;;4.42;98.46
58223;BME280;44020;50.890;15.796;2023-12-20T08:17:26;97027.62;;;4.41;98.40
58223;BME280;44020;50.890;15.796;2023-12-20T08:20:00;97028.08;;;4.39;98.38
58223;BME280;44020;50.890;15.796;2023-12-20T08:22:28;97027.04;;;4.40;98.44
58223;BME280;44020;50.890;15.796;2023-12-20T08:25:03;97023.00;;;4.39;98.17
58223;BME280;44020;50.890;15.796;2023-12-20T08:27:43;97025.82;;;4.39;98.07
58223;BME280;44020;50.890;15.796;2023-12-20T08:30:13;97019.77;;;4.40;98.08
58223;BME280;44020;50.890;15.796;2023-12-20T08:32:44;97012.69;;;4.41;97.99
58223;BME280;44020;50.890;15.796;2023-12-20T08:35:12;97015.05;;;4.43;97.84
58223;BME280;44020;50.890;15.796;2023-12-20T08:37:51;97016.42;;;4.43;97.82
58223;BME280;44020;50.890;15.796;2023-12-20T08:40:38;97019.41;;;4.46;97.86
58223;BME280;44020;50.890;15.796;2023-12-20T08:43:07;97017.29;;;4.50;97.72
58223;BME280;44020;50.890;15.796;2023-12-20T08:45:55;97030.17;;;4.52;97.50
58223;BME280;44020;50.890;15.796;2023-12-20T08:48:26;97031.37;;;4.50;97.22
58223;BME280;44020;50.890;15.796;2023-12-20T08:51:05;97028.83;;;4.48;97.07
58223;BME280;44020;50.890;15.796;2023-12-20T08:53:39;97020.68;;;4.46;96.94
58223;BME280;44020;50.890;15.796;2023-12-20T08:56:07;97025.84;;;4.45;97.05
58223;BME280;44020;50.890;15.796;2023-12-20T08:58:49;97023.97;;;4.44;97.02
58223;BME280;44020;50.890;15.796;2023-12-20T09:01:17;97021.66;;;4.44;97.00
58223;BME280;44020;50.890;15.796;2023-12-20T09:03:45;97025.10;;;4.45;97.07
58223;BME280;44020;50.890;15.796;2023-12-20T09:06:13;97028.21;;;4.46;97.05
58223;BME280;44020;50.890;15.796;2023-12-20T09:09:01;97033.75;;;4.48;97.03
58223;BME280;44020;50.890;15.796;2023-12-20T09:11:39;97035.83;;;4.49;96.67
58223;BME280;44020;50.890;15.796;2023-12-20T09:14:23;97025.42;;;4.49;96.79
58223;BME280;44020;50.890;15.796;2023-12-20T09:17:05;97024.13;;;4.50;96.63
58223;BME280;44020;50.890;15.796;2023-12-20T09:19:46;97028.53;;;4.50;96.47
58223;BME280;44020;50.890;15.796;2023-12-20T09:22:14;97029.02;;;4.47;96.26
58223;BME280;44020;50.890;15.796;2023-12-20T09:24:42;97036.99;;;4.46;96.21
58223;BME280;44020;50.890;15.796;2023-12-20T09:27:20;97029.02;;;4.45;96.29
58223;BME280;44020;50.890;15.796;2023-12-20T09:29:52;97027.85;;;4.44;96.17
58223;BME280;44020;50.890;15.796;2023-12-20T09:32:23;97033.25;;;4.38;96.48
58223;BME280;44020;50.890;15.796;2023-12-20T09:34:51;97031.55;;;4.33;96.74
58223;BME280;44020;50.890;15.796;2023-12-20T09:37:19;97026.14;;;4.30;96.87
58223;BME280;44020;50.890;15.796;2023-12-20T09:40:18;97018.16;;;4.25;97.08
58223;BME280;44020;50.890;15.796;2023-12-20T09:42:58;97014.19;;;4.24;97.40
58223;BME280;44020;50.890;15.796;2023-12-20T09:45:31;97007.44;;;4.22;97.34
58223;BME280;44020;50.890;15.796;2023-12-20T09:48:24;97002.52;;;4.22;97.65
58223;BME280;44020;50.890;15.796;2023-12-20T09:50:55;96997.66;;;4.23;97.77
58223;BME280;44020;50.890;15.796;2023-12-20T09:53:40;97004.42;;;4.25;97.90
58223;BME280;44020;50.890;15.796;2023-12-20T09:56:18;97006.64;;;4.26;98.06
58223;BME280;44020;50.890;15.796;2023-12-20T09:58:51;97004.39;;;4.26;98.21
58223;BME280;44020;50.890;15.796;2023-12-20T10:01:22;97005.13;;;4.28;98.41
58223;BME280;44020;50.890;15.796;2023-12-20T10:04:16;97014.81;;;4.31;98.40
58223;BME280;44020;50.890;15.796;2023-12-20T10:06:53;97008.95;;;4.35;98.45
58223;BME280;44020;50.890;15.796;2023-12-20T10:13:01;97007.50;;;4.43;98.58
58223;BME280;44020;50.890;15.796;2023-12-20T10:15:38;97005.27;;;4.48;98.56
58223;BME280;44020;50.890;15.796;2023-12-20T10:18:07;97006.85;;;4.54;98.56
58223;BME280;44020;50.890;15.796;2023-12-20T10:20:35;97009.48;;;4.60;98.65
58223;BME280;44020;50.890;15.796;2023-12-20T10:23:07;97002.49;;;4.65;98.53
58223;BME280;44020;50.890;15.796;2023-12-20T10:25:56;96991.98;;;4.71;98.53
58223;BME280;44020;50.890;15.796;2023-12-20T10:28:53;96989.55;;;4.76;98.50
58223;BME280;44020;50.890;15.796;2023-12-20T10:31:49;96984.69;;;4.81;97.85
58223;BME280;44020;50.890;15.796;2023-12-20T10:34:20;96980.94;;;4.88;97.73
58223;BME280;44020;50.890;15.796;2023-12-20T10:36:59;96971.73;;;4.95;97.26
58223;BME280;44020;50.890;15.796;2023-12-20T10:39:32;96972.73;;;5.02;96.76
58223;BME280;44020;50.890;15.796;2023-12-20T10:42:15;96965.16;;;5.11;96.53
58223;BME280;44020;50.890;15.796;2023-12-20T10:44:44;96962.08;;;5.21;95.87
58223;BME280;44020;50.890;15.796;2023-12-20T10:47:22;96956.85;;;5.29;95.51
58223;BME280;44020;50.890;15.796;2023-12-20T10:49:56;96954.42;;;5.34;94.87
58223;BME280;44020;50.890;15.796;2023-12-20T10:52:32;96960.64;;;5.38;93.68
58223;BME280;44020;50.890;15.796;2023-12-20T10:55:23;96961.74;;;5.43;92.09
58223;BME280;44020;50.890;15.796;2023-12-20T10:58:15;96969.77;;;5.45;90.21
58223;BME280;44020;50.890;15.796;2023-12-20T11:00:53;96966.14;;;5.49;90.56
58223;BME280;44020;50.890;15.796;2023-12-20T11:03:50;96965.77;;;5.58;90.66
58223;BME280;44020;50.890;15.796;2023-12-20T11:06:48;96955.35;;;5.67;89.84
58223;BME280;44020;50.890;15.796;2023-12-20T11:09:38;96953.80;;;5.75;89.14
58223;BME280;44020;50.890;15.796;2023-12-20T11:12:42;96947.61;;;5.86;88.67
58223;BME280;44020;50.890;15.796;2023-12-20T11:15:10;96947.45;;;5.92;87.43
58223;BME280;44020;50.890;15.796;2023-12-20T11:17:45;96949.89;;;5.92;86.36
58223;BME280;44020;50.890;15.796;2023-12-20T11:20:15;96944.80;;;5.89;86.02
58223;BME280;44020;50.890;15.796;2023-12-20T11:23:14;96938.23;;;5.87;85.92
58223;BME280;44020;50.890;15.796;2023-12-20T11:25:57;96940.20;;;5.84;85.58
58223;BME280;44020;50.890;15.796;2023-12-20T11:28:38;96933.05;;;5.77;84.73
58223;BME280;44020;50.890;15.796;2023-12-20T11:31:06;96928.29;;;5.74;85.33
58223;BME280;44020;50.890;15.796;2023-12-20T11:33:40;96929.56;;;5.79;85.63
58223;BME280;44020;50.890;15.796;2023-12-20T11:36:17;96924.89;;;5.92;84.62
58223;BME280;44020;50.890;15.796;2023-12-20T11:39:20;96917.02;;;6.02;84.30
58223;BME280;44020;50.890;15.796;2023-12-20T11:42:24;96911.65;;;6.12;83.87
58223;BME280;44020;50.890;15.796;2023-12-20T11:44:56;96906.09;;;6.10;83.16
58223;BME280;44020;50.890;15.796;2023-12-20T11:47:24;96909.59;;;6.08;83.73
58223;BME280;44020;50.890;15.796;2023-12-20T11:50:06;96899.31;;;6.03;83.00
58223;BME280;44020;50.890;15.796;2023-12-20T11:52:35;96902.02;;;5.97;82.60
58223;BME280;44020;50.890;15.796;2023-12-20T11:57:54;96897.23;;;6.03;82.44
58223;BME280;44020;50.890;15.796;2023-12-20T12:06:54;96896.15;;;6.17;81.66
58223;BME280;44020;50.890;15.796;2023-12-20T12:09:25;96897.01;;;6.11;81.12
58223;BME280;44020;50.890;15.796;2023-12-20T12:12:13;96886.45;;;6.09;81.32
58223;BME280;44020;50.890;15.796;2023-12-20T12:14:56;96883.90;;;6.04;80.62
58223;BME280;44020;50.890;15.796;2023-12-20T12:17:53;96882.86;;;5.99;80.53
58223;BME280;44020;50.890;15.796;2023-12-20T12:20:31;96886.64;;;5.95;80.59
58223;BME280;44020;50.890;15.796;2023-12-20T12:23:05;96885.48;;;5.93;80.54
58223;BME280;44020;50.890;15.796;2023-12-20T12:25:36;96893.72;;;5.91;80.41
58223;BME280;44020;50.890;15.796;2023-12-20T12:28:07;96893.88;;;5.89;80.55
58223;BME280;44020;50.890;15.796;2023-12-20T12:30:38;96893.06;;;5.85;79.90
58223;BME280;44020;50.890;15.796;2023-12-20T12:33:21;96884.96;;;5.79;79.81
58223;BME280;44020;50.890;15.796;2023-12-20T12:35:58;96883.73;;;5.76;80.29
58223;BME280;44020;50.890;15.796;2023-12-20T12:38:27;96883.48;;;5.75;80.63
58223;BME280;44020;50.890;15.796;2023-12-20T12:40:56;96880.15;;;5.75;80.55
58223;BME280;44020;50.890;15.796;2023-12-20T12:43:25;96883.46;;;5.72;80.65
58223;BME280;44020;50.890;15.796;2023-12-20T12:45:55;96879.98;;;5.69;80.44
58223;BME280;44020;50.890;15.796;2023-12-20T12:48:26;96874.36;;;5.69;80.56
58223;BME280;44020;50.890;15.796;2023-12-20T12:50:55;96875.50;;;5.68;80.21
58223;BME280;44020;50.890;15.796;2023-12-20T12:53:26;96878.08;;;5.66;80.41
58223;BME280;44020;50.890;15.796;2023-12-20T12:55:54;96874.94;;;5.65;80.17
58223;BME280;44020;50.890;15.796;2023-12-20T12:58:22;96866.50;;;5.62;80.01
58223;BME280;44020;50.890;15.796;2023-12-20T13:00:53;96861.65;;;5.60;80.31
58223;BME280;44020;50.890;15.796;2023-12-20T13:03:31;96864.73;;;5.59;79.97
58223;BME280;44020;50.890;15.796;2023-12-20T13:05:59;96861.08;;;5.56;79.98
58223;BME280;44020;50.890;15.796;2023-12-20T13:08:36;96850.96;;;5.54;80.29
58223;BME280;44020;50.890;15.796;2023-12-20T13:11:04;96848.70;;;5.54;80.20
58223;BME280;44020;50.890;15.796;2023-12-20T13:13:41;96850.22;;;5.52;79.94
58223;BME280;44020;50.890;15.796;2023-12-20T13:16:09;96854.57;;;5.50;79.86
58223;BME280;44020;50.890;15.796;2023-12-20T13:18:36;96849.23;;;5.49;79.69
58223;BME280;44020;50.890;15.796;2023-12-20T13:21:10;96849.34;;;5.47;79.59
58223;BME280;44020;50.890;15.796;2023-12-20T13:26:21;96844.19;;;5.53;80.05
58223;BME280;44020;50.890;15.796;2023-12-20T13:28:52;96845.34;;;5.54;79.81
58223;BME280;44020;50.890;15.796;2023-12-20T13:31:33;96843.23;;;5.54;79.47
58223;BME280;44020;50.890;15.796;2023-12-20T13:34:23;96838.58;;;5.55;79.46
58223;BME280;44020;50.890;15.796;2023-12-20T13:37:15;96839.03;;;5.53;78.93
58223;BME280;44020;50.890;15.796;2023-12-20T13:39:52;96837.06;;;5.51;78.53
58223;BME280;44020;50.890;15.796;2023-12-20T13:42:47;96838.70;;;5.50;78.31
58223;BME280;44020;50.890;15.796;2023-12-20T13:45:14;96833.46;;;5.50;78.31
58223;BME280;44020;50.890;15.796;2023-12-20T13:47:45;96829.00;;;5.51;78.30
58223;BME280;44020;50.890;15.796;2023-12-20T13:50:13;96823.14;;;5.51;77.06
58223;BME280;44020;50.890;15.796;2023-12-20T13:52:46;96821.91;;;5.51;77.79
58223;BME280;44020;50.890;15.796;2023-12-20T13:55:17;96821.42;;;5.53;77.37
58223;BME280;44020;50.890;15.796;2023-12-20T13:57:49;96816.20;;;5.52;76.96
58223;BME280;44020;50.890;15.796;2023-12-20T14:00:17;96809.88;;;5.52;77.09
58223;BME280;44020;50.890;15.796;2023-12-20T14:02:47;96805.64;;;5.52;76.80
58223;BME280;44020;50.890;15.796;2023-12-20T14:05:16;96803.70;;;5.52;76.86
58223;BME280;44020;50.890;15.796;2023-12-20T14:07:49;96806.27;;;5.56;77.05
58223;BME280;44020;50.890;15.796;2023-12-20T14:10:31;96813.66;;;5.56;76.64
58223;BME280;44020;50.890;15.796;2023-12-20T14:12:59;96806.13;;;5.55;76.40
58223;BME280;44020;50.890;15.796;2023-12-20T14:15:27;96808.02;;;5.54;76.33
58223;BME280;44020;50.890;15.796;2023-12-20T14:17:55;96807.41;;;5.52;76.11
58223;BME280;44020;50.890;15.796;2023-12-20T14:20:23;96799.85;;;5.49;76.24
58223;BME280;44020;50.890;15.796;2023-12-20T14:22:51;96806.05;;;5.48;76.25
58223;BME280;44020;50.890;15.796;2023-12-20T14:25:19;96807.16;;;5.45;76.40
58223;BME280;44020;50.890;15.796;2023-12-20T14:27:48;96813.60;;;5.43;75.85
58223;BME280;44020;50.890;15.796;2023-12-20T14:30:25;96820.33;;;5.40;76.07
58223;BME280;44020;50.890;15.796;2023-12-20T14:33:02;96825.55;;;5.38;75.57
58223;BME280;44020;50.890;15.796;2023-12-20T14:35:31;96820.27;;;5.36;75.55
58223;BME280;44020;50.890;15.796;2023-12-20T14:38:02;96818.88;;;5.35;75.37
58223;BME280;44020;50.890;15.796;2023-12-20T14:40:33;96810.86;;;5.34;75.79
58223;BME280;44020;50.890;15.796;2023-12-20T14:43:01;96807.94;;;5.33;75.59
58223;BME280;44020;50.890;15.796;2023-12-20T14:45:34;96805.21;;;5.31;75.84
58223;BME280;44020;50.890;15.796;2023-12-20T14:48:05;96810.73;;;5.33;75.55
58223;BME280;44020;50.890;15.796;2023-12-20T14:50:35;96808.20;;;5.32;75.67
58223;BME280;44020;50.890;15.796;2023-12-20T14:53:04;96811.38;;;5.31;75.47